createdAt,value
2023-01-06T00:04:44.711Z,1.00
2023-01-06T00:09:47.169Z,1.00
2023-01-06T00:14:49.606Z,1.00
2023-01-06T00:19:52.053Z,1.00
2023-01-06T00:24:54.496Z,1.00
2023-01-06T00:29:56.903Z,1.00
2023-01-06T00:34:59.422Z,1.00
2023-01-06T00:40:01.992Z,1.00
2023-01-06T00:45:04.729Z,1.00
2023-01-06T00:50:07.821Z,1.00
2023-01-06T00:55:10.258Z,1.00
2023-01-06T01:00:13.334Z,1.00
2023-01-06T01:05:16.168Z,14.60
2023-01-06T01:10:19.790Z,26.50
2023-01-06T01:15:22.568Z,44.60
2023-01-06T01:20:24.984Z,61.70
2023-01-06T01:25:27.461Z,56.40
2023-01-06T01:30:29.973Z,75.20
2023-01-06T01:35:32.454Z,90.90
2023-01-06T01:40:34.851Z,96.60
2023-01-06T01:45:37.308Z,98.40
2023-01-06T01:50:47.717Z,92.10
2023-01-06T01:55:53.103Z,91.40
2023-01-06T02:00:55.526Z,83.60
2023-01-06T02:06:06.848Z,73.90
2023-01-06T02:11:09.611Z,74.90
2023-01-06T02:16:36.040Z,65.80
2023-01-06T02:21:38.508Z,61.30
2023-01-06T02:27:04.429Z,56.30
2023-01-06T02:32:17.176Z,59.60
2023-01-06T02:37:38.446Z,62.50
2023-01-06T02:43:03.848Z,49.60
2023-01-06T02:48:29.964Z,34.10
2023-01-06T02:53:43.308Z,24.30
2023-01-06T02:58:53.588Z,19.30
2023-01-06T03:03:59.638Z,46.40
2023-01-06T03:09:05.352Z,74.30
2023-01-06T03:14:45.603Z,93.70
2023-01-06T03:19:48.865Z,97.00
2023-01-06T03:24:53.566Z,99.90
2023-01-06T03:29:59.051Z,99.90
2023-01-06T03:35:28.263Z,99.90
2023-01-06T03:40:38.315Z,99.90
2023-01-06T03:46:16.142Z,99.90
2023-01-06T03:51:47.089Z,99.90
2023-01-06T03:56:58.266Z,99.90
2023-01-06T04:02:01.964Z,99.90
2023-01-06T04:07:05.947Z,99.90
2023-01-06T04:12:48.084Z,99.90
2023-01-06T04:17:54.751Z,99.90
2023-01-06T04:22:58.242Z,99.90
2023-01-06T04:28:02.663Z,99.90
2023-01-06T04:33:05.465Z,99.90
2023-01-06T04:38:07.964Z,99.90
2023-01-06T04:43:16.085Z,99.90
2023-01-06T04:48:18.730Z,99.90
2023-01-06T04:53:21.186Z,99.90
2023-01-06T04:58:23.538Z,99.90
2023-01-06T05:03:25.998Z,99.90
2023-01-06T05:08:29.484Z,94.10
2023-01-06T05:13:32.763Z,80.70
2023-01-06T05:18:35.812Z,60.80
2023-01-06T05:23:39.468Z,47.40
2023-01-06T05:28:41.890Z,43.20
2023-01-06T05:33:44.396Z,42.10
2023-01-06T05:38:52.419Z,32.70
2023-01-06T05:43:54.943Z,30.50
2023-01-06T05:48:59.179Z,20.40
2023-01-06T05:54:01.583Z,1.00
2023-01-06T05:59:04.196Z,1.00
2023-01-06T06:04:06.710Z,1.00
2023-01-06T06:09:09.269Z,1.00
2023-01-06T06:14:11.789Z,1.00
2023-01-06T06:19:14.761Z,1.00
2023-01-06T06:24:17.183Z,1.00
2023-01-06T06:29:19.608Z,1.00
2023-01-06T06:34:21.958Z,1.00
2023-01-06T06:39:24.351Z,1.00
2023-01-06T06:44:26.843Z,1.00
2023-01-06T06:49:29.239Z,1.00
2023-01-06T06:54:31.695Z,1.00
2023-01-06T06:59:34.129Z,1.00
2023-01-06T07:04:36.622Z,1.00
2023-01-06T07:09:39.462Z,1.00
2023-01-06T07:14:41.863Z,1.00
2023-01-06T07:19:44.263Z,1.00
2023-01-06T07:24:47.083Z,1.00
2023-01-06T07:29:49.537Z,1.00
2023-01-06T07:34:51.931Z,1.00
2023-01-06T07:39:54.348Z,1.00
2023-01-06T07:44:56.716Z,1.00
2023-01-06T07:49:59.106Z,1.00
2023-01-06T07:55:01.546Z,1.00
2023-01-06T08:00:04.626Z,1.00
2023-01-06T08:05:14.493Z,1.00
2023-01-06T08:10:17.406Z,1.00
2023-01-06T08:15:19.789Z,1.00
2023-01-06T08:20:22.493Z,1.00
2023-01-06T08:25:25.013Z,1.00
2023-01-06T08:30:27.889Z,1.00
2023-01-06T08:35:30.243Z,1.00
2023-01-06T08:40:32.659Z,1.00
2023-01-06T08:45:39.606Z,1.00
2023-01-06T08:50:42.624Z,1.00
2023-01-06T08:55:45.056Z,1.00
2023-01-06T09:00:47.451Z,1.00
2023-01-06T09:05:57.265Z,99.90
2023-01-06T09:11:06.008Z,57.40
2023-01-06T09:16:10.024Z,76.00
2023-01-06T09:21:12.514Z,1.00
2023-01-06T09:26:16.415Z,1.00
2023-01-06T09:31:19.005Z,1.00
2023-01-06T09:36:22.200Z,1.00
2023-01-06T09:42:04.797Z,1.00
2023-01-06T09:47:12.102Z,1.00
2023-01-06T09:52:23.263Z,1.00
2023-01-06T09:57:34.489Z,1.00
2023-01-06T10:02:39.735Z,1.00
2023-01-06T10:08:07.463Z,1.00
2023-01-06T10:13:31.889Z,1.00
2023-01-06T10:18:58.420Z,1.00
2023-01-06T10:24:12.876Z,1.00
2023-01-06T10:29:18.557Z,1.00
2023-01-06T10:34:26.751Z,99.90
2023-01-06T10:39:30.278Z,1.00
2023-01-06T10:44:32.763Z,99.90
2023-01-06T10:49:35.559Z,99.90
2023-01-06T10:54:39.821Z,99.90
2023-01-06T11:00:22.330Z,2.20
2023-01-06T11:05:26.715Z,1.00
2023-01-06T11:10:53.811Z,1.00
2023-01-06T11:15:57.451Z,1.00
2023-01-06T11:21:16.289Z,1.00
2023-01-06T11:26:23.696Z,1.00
2023-01-06T11:31:28.292Z,99.90
2023-01-06T11:36:33.524Z,99.90
2023-01-06T11:41:38.701Z,1.00
2023-01-06T11:46:49.157Z,1.00
2023-01-06T11:51:51.978Z,1.00
2023-01-06T11:56:59.287Z,1.00
2023-01-06T12:02:01.795Z,25.00
2023-01-06T12:07:40.312Z,99.90
2023-01-06T12:12:42.940Z,99.90
2023-01-06T12:18:32.385Z,99.90
2023-01-06T12:23:41.060Z,99.90
2023-01-06T12:28:47.395Z,99.90
2023-01-06T12:34:01.879Z,99.90
2023-01-06T12:39:19.152Z,1.00
2023-01-06T12:44:39.066Z,1.00
2023-01-06T12:50:09.837Z,1.00
2023-01-06T12:55:19.066Z,1.00
2023-01-06T13:00:46.430Z,26.40
2023-01-06T13:06:21.449Z,96.90
2023-01-06T13:12:03.009Z,99.90
2023-01-06T13:17:14.627Z,99.90
2023-01-06T13:22:36.746Z,99.90
2023-01-06T13:28:08.447Z,99.90
2023-01-06T13:33:52.246Z,99.90
2023-01-06T13:39:11.012Z,99.90
2023-01-06T13:44:20.080Z,99.90
2023-01-06T13:49:22.493Z,99.90
2023-01-06T13:54:40.146Z,99.90
2023-01-06T13:59:50.247Z,99.90
2023-01-06T14:04:53.531Z,99.90
2023-01-06T14:09:56.008Z,99.90
2023-01-06T14:15:05.372Z,99.90
2023-01-06T14:20:33.325Z,99.90
2023-01-06T14:25:42.664Z,99.90
2023-01-06T14:30:45.682Z,99.90
2023-01-06T14:35:48.984Z,99.90
2023-01-06T14:41:07.881Z,99.90
2023-01-06T14:46:21.505Z,99.90
2023-01-06T14:51:25.290Z,99.90
2023-01-06T14:56:30.159Z,99.90
2023-01-06T15:01:37.502Z,99.90
2023-01-06T15:06:40.043Z,99.90
2023-01-06T15:11:42.862Z,99.90
2023-01-06T15:16:45.419Z,99.90
2023-01-06T15:21:50.239Z,99.90
2023-01-06T15:26:54.782Z,99.90
2023-01-06T15:31:57.402Z,99.90
2023-01-06T15:37:01.717Z,99.90
2023-01-06T15:42:06.752Z,99.90
2023-01-06T15:47:13.027Z,99.90
2023-01-06T15:52:27.841Z,99.90
2023-01-06T15:57:40.332Z,99.90
2023-01-06T16:02:46.751Z,99.90
2023-01-06T16:07:49.123Z,99.90
2023-01-06T16:13:16.031Z,99.90
2023-01-06T16:18:27.429Z,99.90
2023-01-06T16:23:34.181Z,99.90
2023-01-06T16:28:42.996Z,99.90
2023-01-06T16:33:46.001Z,99.90
2023-01-06T16:38:48.490Z,99.90
2023-01-06T16:43:50.890Z,99.90
2023-01-06T16:48:57.325Z,99.90
2023-01-06T16:53:59.926Z,99.90
2023-01-06T16:59:02.480Z,99.90
2023-01-06T17:04:05.188Z,99.90
2023-01-06T17:09:20.938Z,99.90
2023-01-06T17:14:23.764Z,99.90
2023-01-06T17:19:32.444Z,99.90
2023-01-06T17:24:35.758Z,99.90
2023-01-06T17:29:38.352Z,99.90
2023-01-06T17:34:40.858Z,99.90
2023-01-06T17:39:45.839Z,99.90
2023-01-06T17:44:51.477Z,99.90
2023-01-06T17:50:01.780Z,99.90
2023-01-06T17:55:25.825Z,99.90
2023-01-06T18:00:33.355Z,99.90
2023-01-06T18:05:35.829Z,99.90
2023-01-06T18:10:43.103Z,99.90
2023-01-06T18:15:48.058Z,99.90
2023-01-06T18:21:12.585Z,99.90
2023-01-06T18:26:37.812Z,99.90
2023-01-06T18:31:41.020Z,99.90
2023-01-06T18:36:48.905Z,99.90
2023-01-06T18:42:25.791Z,99.90
2023-01-06T18:47:30.696Z,99.90
2023-01-06T18:52:46.231Z,99.90
2023-01-06T18:57:57.643Z,99.90
2023-01-06T19:03:37.485Z,99.90
2023-01-06T19:08:41.663Z,99.90
2023-01-06T19:13:46.117Z,99.90
2023-01-06T19:18:48.553Z,99.90
2023-01-06T19:23:51.063Z,99.90
2023-01-06T19:29:01.884Z,99.90
2023-01-06T19:34:06.322Z,99.90
2023-01-06T19:39:22.107Z,99.90
2023-01-06T19:44:32.254Z,99.90
2023-01-06T19:49:40.583Z,99.90
2023-01-06T19:54:43.122Z,99.90
2023-01-06T19:59:45.519Z,99.90
2023-01-06T20:04:47.943Z,99.90
2023-01-06T20:09:50.429Z,99.90
2023-01-06T20:14:52.857Z,99.90
2023-01-06T20:19:55.234Z,99.90
2023-01-06T20:24:57.986Z,99.90
2023-01-06T20:30:00.953Z,99.90
2023-01-06T20:35:03.709Z,99.90
2023-01-06T20:40:07.202Z,99.90
2023-01-06T20:45:10.256Z,99.90
2023-01-06T20:50:14.607Z,99.90
2023-01-06T20:55:17.033Z,99.90
2023-01-06T21:00:19.564Z,99.90
2023-01-06T21:05:22.002Z,99.90
2023-01-06T21:10:24.366Z,99.90
2023-01-06T21:15:26.799Z,99.90
2023-01-06T21:20:29.667Z,99.90
2023-01-06T21:25:32.070Z,99.90
2023-01-06T21:30:34.956Z,99.90
2023-01-06T21:35:37.448Z,99.90
2023-01-06T21:40:39.844Z,99.90
2023-01-06T21:45:44.320Z,99.90
2023-01-06T21:50:46.813Z,99.90
2023-01-06T21:55:49.466Z,99.90
2023-01-06T22:00:51.891Z,99.90
2023-01-06T22:05:54.609Z,99.90
2023-01-06T22:10:57.158Z,99.90
2023-01-06T22:15:59.933Z,99.90
2023-01-06T22:21:03.132Z,99.90
2023-01-06T22:26:06.142Z,99.90
2023-01-06T22:31:09.076Z,99.90
2023-01-06T22:36:11.708Z,99.90
2023-01-06T22:41:14.104Z,99.90
2023-01-06T22:46:16.870Z,99.90
2023-01-06T22:51:19.321Z,99.90
2023-01-06T22:56:21.769Z,99.90
2023-01-06T23:01:24.646Z,99.90
2023-01-06T23:06:27.202Z,99.90
2023-01-06T23:11:31.440Z,99.90
2023-01-06T23:16:36.488Z,99.90
2023-01-06T23:21:40.218Z,99.90
2023-01-06T23:26:45.165Z,99.90
2023-01-06T23:31:47.791Z,99.90
2023-01-06T23:36:50.438Z,99.90
2023-01-06T23:41:54.646Z,99.90
2023-01-06T23:46:57.101Z,99.90
2023-01-06T23:51:59.605Z,99.90
2023-01-06T23:57:02.095Z,99.90
